sensor_id;sensor_type;location;lat;lon;timestamp;temperature;humidity
25951;DHT22;13748;52.240;6.002;2023-04-24T00:01:14;10.00;99.90
25951;DHT22;13748;52.240;6.002;2023-04-24T00:03:41;9.90;99.90
25951;DHT22;13748;52.240;6.002;2023-04-24T00:06:08;9.80;99.90
25951;DHT22;13748;52.240;6.002;2023-04-24T00:08:35;9.80;99.90
25951;DHT22;13748;52.240;6.002;2023-04-24T00:11:02;9.80;99.90
25951;DHT22;13748;52.240;6.002;2023-04-24T00:13:29;9.90;99.90
25951;DHT22;13748;52.240;6.002;2023-04-24T00:15:56;9.80;99.90
25951;DHT22;13748;52.240;6.002;2023-04-24T00:18:23;9.90;99.90
25951;DHT22;13748;52.240;6.002;2023-04-24T00:20:49;9.80;99.90
25951;DHT22;13748;52.240;6.002;2023-04-24T00:23:16;9.90;99.90
25951;DHT22;13748;52.240;6.002;2023-04-24T00:25:43;9.80;99.90
25951;DHT22;13748;52.240;6.002;2023-04-24T00:28:10;9.90;99.90
25951;DHT22;13748;52.240;6.002;2023-04-24T00:30:36;9.80;99.90
25951;DHT22;13748;52.240;6.002;2023-04-24T00:33:03;9.80;99.90
25951;DHT22;13748;52.240;6.002;2023-04-24T00:35:30;9.90;99.90
25951;DHT22;13748;52.240;6.002;2023-04-24T00:37:57;9.90;99.90
25951;DHT22;13748;52.240;6.002;2023-04-24T00:40:23;9.90;99.90
25951;DHT22;13748;52.240;6.002;2023-04-24T00:42:50;9.90;99.90
25951;DHT22;13748;52.240;6.002;2023-04-24T00:45:17;9.90;99.90
25951;DHT22;13748;52.240;6.002;2023-04-24T00:47:45;9.90;99.90
25951;DHT22;13748;52.240;6.002;2023-04-24T00:50:14;9.90;99.90
25951;DHT22;13748;52.240;6.002;2023-04-24T00:52:41;10.00;99.90
25951;DHT22;13748;52.240;6.002;2023-04-24T00:55:08;10.00;99.90
25951;DHT22;13748;52.240;6.002;2023-04-24T00:57:35;10.00;99.90
25951;DHT22;13748;52.240;6.002;2023-04-24T01:00:04;10.00;99.90
25951;DHT22;13748;52.240;6.002;2023-04-24T01:02:32;10.00;99.90
25951;DHT22;13748;52.240;6.002;2023-04-24T01:05:01;10.00;99.90
25951;DHT22;13748;52.240;6.002;2023-04-24T01:07:29;10.00;99.90
25951;DHT22;13748;52.240;6.002;2023-04-24T01:09:56;10.00;99.90
25951;DHT22;13748;52.240;6.002;2023-04-24T01:12:23;10.00;99.90
25951;DHT22;13748;52.240;6.002;2023-04-24T01:14:50;10.00;99.90
25951;DHT22;13748;52.240;6.002;2023-04-24T01:17:26;9.90;99.90
25951;DHT22;13748;52.240;6.002;2023-04-24T01:19:53;10.00;99.90
25951;DHT22;13748;52.240;6.002;2023-04-24T01:22:20;9.80;99.90
25951;DHT22;13748;52.240;6.002;2023-04-24T01:24:48;9.80;99.90
25951;DHT22;13748;52.240;6.002;2023-04-24T01:27:15;9.80;99.90
25951;DHT22;13748;52.240;6.002;2023-04-24T01:29:42;9.70;99.90
25951;DHT22;13748;52.240;6.002;2023-04-24T01:32:09;9.80;99.90
25951;DHT22;13748;52.240;6.002;2023-04-24T01:34:37;9.60;99.90
25951;DHT22;13748;52.240;6.002;2023-04-24T01:37:04;9.70;99.90
25951;DHT22;13748;52.240;6.002;2023-04-24T01:39:32;9.70;99.90
25951;DHT22;13748;52.240;6.002;2023-04-24T01:42:00;9.70;99.90
25951;DHT22;13748;52.240;6.002;2023-04-24T01:44:33;9.70;99.90
25951;DHT22;13748;52.240;6.002;2023-04-24T01:47:00;9.70;99.90
25951;DHT22;13748;52.240;6.002;2023-04-24T01:49:27;9.70;99.90
25951;DHT22;13748;52.240;6.002;2023-04-24T01:51:54;9.60;99.90
25951;DHT22;13748;52.240;6.002;2023-04-24T01:54:21;9.70;99.90
25951;DHT22;13748;52.240;6.002;2023-04-24T01:56:48;9.70;99.90
25951;DHT22;13748;52.240;6.002;2023-04-24T01:59:15;9.70;99.90
25951;DHT22;13748;52.240;6.002;2023-04-24T02:01:43;9.60;99.90
25951;DHT22;13748;52.240;6.002;2023-04-24T02:04:10;9.70;99.90
25951;DHT22;13748;52.240;6.002;2023-04-24T02:06:37;9.60;99.90
25951;DHT22;13748;52.240;6.002;2023-04-24T02:09:06;9.60;99.90
25951;DHT22;13748;52.240;6.002;2023-04-24T02:11:44;9.60;99.90
25951;DHT22;13748;52.240;6.002;2023-04-24T02:14:10;9.60;99.90
25951;DHT22;13748;52.240;6.002;2023-04-24T02:16:37;9.70;99.90
25951;DHT22;13748;52.240;6.002;2023-04-24T02:19:04;9.70;99.90
25951;DHT22;13748;52.240;6.002;2023-04-24T02:21:31;9.70;99.90
25951;DHT22;13748;52.240;6.002;2023-04-24T02:23:58;9.80;99.90
25951;DHT22;13748;52.240;6.002;2023-04-24T02:26:25;9.80;99.90
25951;DHT22;13748;52.240;6.002;2023-04-24T02:28:52;9.80;99.90
25951;DHT22;13748;52.240;6.002;2023-04-24T02:31:19;9.80;99.90
25951;DHT22;13748;52.240;6.002;2023-04-24T02:33:46;9.80;99.90
25951;DHT22;13748;52.240;6.002;2023-04-24T02:36:13;9.80;99.90
25951;DHT22;13748;52.240;6.002;2023-04-24T02:38:40;9.80;99.90
25951;DHT22;13748;52.240;6.002;2023-04-24T02:41:07;9.70;99.90
25951;DHT22;13748;52.240;6.002;2023-04-24T02:43:34;9.80;99.90
25951;DHT22;13748;52.240;6.002;2023-04-24T02:46:00;9.80;99.90
25951;DHT22;13748;52.240;6.002;2023-04-24T02:48:27;9.80;99.90
25951;DHT22;13748;52.240;6.002;2023-04-24T02:50:55;9.70;99.90
25951;DHT22;13748;52.240;6.002;2023-04-24T02:53:22;9.80;99.90
25951;DHT22;13748;52.240;6.002;2023-04-24T02:55:49;9.80;99.90
25951;DHT22;13748;52.240;6.002;2023-04-24T02:58:16;9.90;99.90
25951;DHT22;13748;52.240;6.002;2023-04-24T03:00:43;9.90;99.90
25951;DHT22;13748;52.240;6.002;2023-04-24T03:03:10;10.00;99.90
25951;DHT22;13748;52.240;6.002;2023-04-24T03:05:37;10.00;99.90
25951;DHT22;13748;52.240;6.002;2023-04-24T03:08:04;10.00;99.90
25951;DHT22;13748;52.240;6.002;2023-04-24T03:10:31;10.00;99.90
25951;DHT22;13748;52.240;6.002;2023-04-24T03:12:58;10.00;99.90
25951;DHT22;13748;52.240;6.002;2023-04-24T03:15:25;10.00;99.90
25951;DHT22;13748;52.240;6.002;2023-04-24T03:17:52;10.00;99.90
25951;DHT22;13748;52.240;6.002;2023-04-24T03:20:22;9.90;99.90
25951;DHT22;13748;52.240;6.002;2023-04-24T03:22:49;10.00;99.90
25951;DHT22;13748;52.240;6.002;2023-04-24T03:25:15;9.90;99.90
25951;DHT22;13748;52.240;6.002;2023-04-24T03:27:42;9.90;99.90
25951;DHT22;13748;52.240;6.002;2023-04-24T03:30:09;10.00;99.90
25951;DHT22;13748;52.240;6.002;2023-04-24T03:32:36;10.00;99.90
25951;DHT22;13748;52.240;6.002;2023-04-24T03:35:07;10.00;99.90
25951;DHT22;13748;52.240;6.002;2023-04-24T03:37:34;10.00;99.90
25951;DHT22;13748;52.240;6.002;2023-04-24T03:40:02;10.00;99.90
25951;DHT22;13748;52.240;6.002;2023-04-24T03:42:28;10.10;99.90
25951;DHT22;13748;52.240;6.002;2023-04-24T03:44:55;10.10;99.90
25951;DHT22;13748;52.240;6.002;2023-04-24T03:47:22;10.10;99.90
25951;DHT22;13748;52.240;6.002;2023-04-24T03:49:49;10.10;99.90
25951;DHT22;13748;52.240;6.002;2023-04-24T03:52:15;10.20;99.90
25951;DHT22;13748;52.240;6.002;2023-04-24T03:54:42;10.10;99.90
25951;DHT22;13748;52.240;6.002;2023-04-24T03:57:09;10.20;99.90
25951;DHT22;13748;52.240;6.002;2023-04-24T03:59:36;10.10;99.90
25951;DHT22;13748;52.240;6.002;2023-04-24T04:02:02;10.20;99.90
25951;DHT22;13748;52.240;6.002;2023-04-24T04:04:29;10.10;99.90
25951;DHT22;13748;52.240;6.002;2023-04-24T04:06:56;10.10;99.90
25951;DHT22;13748;52.240;6.002;2023-04-24T04:09:23;10.10;99.90
25951;DHT22;13748;52.240;6.002;2023-04-24T04:11:51;10.10;99.90
25951;DHT22;13748;52.240;6.002;2023-04-24T04:14:17;10.00;99.90
25951;DHT22;13748;52.240;6.002;2023-04-24T04:16:44;10.00;99.90
25951;DHT22;13748;52.240;6.002;2023-04-24T04:19:11;10.00;99.90
25951;DHT22;13748;52.240;6.002;2023-04-24T04:21:37;10.00;99.90
25951;DHT22;13748;52.240;6.002;2023-04-24T04:24:04;10.00;99.90
25951;DHT22;13748;52.240;6.002;2023-04-24T04:26:32;10.00;99.90
25951;DHT22;13748;52.240;6.002;2023-04-24T04:28:59;10.00;99.90
25951;DHT22;13748;52.240;6.002;2023-04-24T04:31:30;9.90;99.90
25951;DHT22;13748;52.240;6.002;2023-04-24T04:33:57;9.90;99.90
25951;DHT22;13748;52.240;6.002;2023-04-24T04:36:24;10.10;99.90
25951;DHT22;13748;52.240;6.002;2023-04-24T04:38:50;9.90;99.90
25951;DHT22;13748;52.240;6.002;2023-04-24T04:41:17;10.00;99.90
25951;DHT22;13748;52.240;6.002;2023-04-24T04:43:44;10.00;99.90
25951;DHT22;13748;52.240;6.002;2023-04-24T04:46:13;10.00;99.90
25951;DHT22;13748;52.240;6.002;2023-04-24T04:48:39;10.00;99.90
25951;DHT22;13748;52.240;6.002;2023-04-24T04:51:06;10.00;99.90
25951;DHT22;13748;52.240;6.002;2023-04-24T04:53:33;10.00;99.90
25951;DHT22;13748;52.240;6.002;2023-04-24T04:56:00;10.10;99.90
25951;DHT22;13748;52.240;6.002;2023-04-24T04:58:27;10.10;99.90
25951;DHT22;13748;52.240;6.002;2023-04-24T05:01:00;10.10;99.90
25951;DHT22;13748;52.240;6.002;2023-04-24T05:03:26;10.00;99.90
25951;DHT22;13748;52.240;6.002;2023-04-24T05:05:53;10.00;99.90
25951;DHT22;13748;52.240;6.002;2023-04-24T05:08:20;9.90;99.90
25951;DHT22;13748;52.240;6.002;2023-04-24T05:10:53;9.90;99.90
25951;DHT22;13748;52.240;6.002;2023-04-24T05:13:20;9.90;99.90
25951;DHT22;13748;52.240;6.002;2023-04-24T05:15:57;9.90;99.90
25951;DHT22;13748;52.240;6.002;2023-04-24T05:18:24;9.80;99.90
25951;DHT22;13748;52.240;6.002;2023-04-24T05:20:51;9.90;99.90
25951;DHT22;13748;52.240;6.002;2023-04-24T05:23:18;9.90;99.90
25951;DHT22;13748;52.240;6.002;2023-04-24T05:25:45;9.90;99.90
25951;DHT22;13748;52.240;6.002;2023-04-24T05:28:12;9.90;99.90
25951;DHT22;13748;52.240;6.002;2023-04-24T05:30:39;9.90;99.90
25951;DHT22;13748;52.240;6.002;2023-04-24T05:33:07;9.90;99.90
25951;DHT22;13748;52.240;6.002;2023-04-24T05:35:35;9.90;99.90
25951;DHT22;13748;52.240;6.002;2023-04-24T05:38:01;9.90;99.90
25951;DHT22;13748;52.240;6.002;2023-04-24T05:40:28;9.90;99.90
25951;DHT22;13748;52.240;6.002;2023-04-24T05:42:55;9.90;99.90
25951;DHT22;13748;52.240;6.002;2023-04-24T05:45:21;9.90;99.90
25951;DHT22;13748;52.240;6.002;2023-04-24T05:47:48;9.80;99.90
25951;DHT22;13748;52.240;6.002;2023-04-24T05:50:29;9.70;99.90
25951;DHT22;13748;52.240;6.002;2023-04-24T05:53:04;9.60;99.90
25951;DHT22;13748;52.240;6.002;2023-04-24T05:55:33;9.70;99.90
25951;DHT22;13748;52.240;6.002;2023-04-24T05:58:00;9.80;99.90
25951;DHT22;13748;52.240;6.002;2023-04-24T06:00:27;9.70;99.90
25951;DHT22;13748;52.240;6.002;2023-04-24T06:02:55;9.70;99.90
25951;DHT22;13748;52.240;6.002;2023-04-24T06:05:22;9.60;99.90
25951;DHT22;13748;52.240;6.002;2023-04-24T06:07:49;9.60;99.90
25951;DHT22;13748;52.240;6.002;2023-04-24T06:10:16;9.60;99.90
25951;DHT22;13748;52.240;6.002;2023-04-24T06:12:43;9.60;99.90
25951;DHT22;13748;52.240;6.002;2023-04-24T06:15:10;9.60;99.90
25951;DHT22;13748;52.240;6.002;2023-04-24T06:17:37;9.60;99.90
25951;DHT22;13748;52.240;6.002;2023-04-24T06:20:04;9.60;99.90
25951;DHT22;13748;52.240;6.002;2023-04-24T06:22:32;9.60;99.90
25951;DHT22;13748;52.240;6.002;2023-04-24T06:24:59;9.70;99.90
25951;DHT22;13748;52.240;6.002;2023-04-24T06:27:27;9.70;99.90
25951;DHT22;13748;52.240;6.002;2023-04-24T06:29:53;9.80;99.90
25951;DHT22;13748;52.240;6.002;2023-04-24T06:32:23;9.80;99.90
25951;DHT22;13748;52.240;6.002;2023-04-24T06:34:51;9.90;99.90
25951;DHT22;13748;52.240;6.002;2023-04-24T06:37:22;9.90;99.90
25951;DHT22;13748;52.240;6.002;2023-04-24T06:39:49;9.90;99.90
25951;DHT22;13748;52.240;6.002;2023-04-24T06:42:16;9.90;99.90
25951;DHT22;13748;52.240;6.002;2023-04-24T06:44:42;10.00;99.90
25951;DHT22;13748;52.240;6.002;2023-04-24T06:47:10;10.00;99.90
25951;DHT22;13748;52.240;6.002;2023-04-24T06:49:37;10.00;99.90
25951;DHT22;13748;52.240;6.002;2023-04-24T06:52:04;10.10;99.90
25951;DHT22;13748;52.240;6.002;2023-04-24T06:54:31;10.10;99.90
25951;DHT22;13748;52.240;6.002;2023-04-24T06:56:59;10.20;99.90
25951;DHT22;13748;52.240;6.002;2023-04-24T06:59:27;10.30;99.90
25951;DHT22;13748;52.240;6.002;2023-04-24T07:01:55;10.30;99.90
25951;DHT22;13748;52.240;6.002;2023-04-24T07:04:22;10.30;99.90
25951;DHT22;13748;52.240;6.002;2023-04-24T07:06:49;10.30;99.90
25951;DHT22;13748;52.240;6.002;2023-04-24T07:09:16;10.30;99.90
25951;DHT22;13748;52.240;6.002;2023-04-24T07:11:44;10.30;99.90
25951;DHT22;13748;52.240;6.002;2023-04-24T07:14:12;10.20;99.90
25951;DHT22;13748;52.240;6.002;2023-04-24T07:16:39;10.20;99.90
25951;DHT22;13748;52.240;6.002;2023-04-24T07:19:06;10.20;99.90
25951;DHT22;13748;52.240;6.002;2023-04-24T07:21:33;10.20;99.90
25951;DHT22;13748;52.240;6.002;2023-04-24T07:24:00;10.20;99.90
25951;DHT22;13748;52.240;6.002;2023-04-24T07:26:30;10.30;99.90
25951;DHT22;13748;52.240;6.002;2023-04-24T07:28:57;10.30;99.90
25951;DHT22;13748;52.240;6.002;2023-04-24T07:31:24;10.20;99.90
25951;DHT22;13748;52.240;6.002;2023-04-24T07:33:51;10.20;99.90
25951;DHT22;13748;52.240;6.002;2023-04-24T07:36:18;10.20;99.90
25951;DHT22;13748;52.240;6.002;2023-04-24T07:38:46;10.10;99.90
25951;DHT22;13748;52.240;6.002;2023-04-24T07:41:13;10.10;99.90
25951;DHT22;13748;52.240;6.002;2023-04-24T07:43:41;10.10;99.90
25951;DHT22;13748;52.240;6.002;2023-04-24T07:46:08;10.00;99.90
25951;DHT22;13748;52.240;6.002;2023-04-24T07:48:36;10.00;99.90
25951;DHT22;13748;52.240;6.002;2023-04-24T07:51:03;10.00;99.90
25951;DHT22;13748;52.240;6.002;2023-04-24T07:53:30;10.00;99.90
25951;DHT22;13748;52.240;6.002;2023-04-24T07:55:56;10.00;99.90
25951;DHT22;13748;52.240;6.002;2023-04-24T07:58:23;9.90;99.90
25951;DHT22;13748;52.240;6.002;2023-04-24T08:00:51;9.90;99.90
25951;DHT22;13748;52.240;6.002;2023-04-24T08:03:17;9.90;99.90
25951;DHT22;13748;52.240;6.002;2023-04-24T08:05:46;9.80;99.90
25951;DHT22;13748;52.240;6.002;2023-04-24T08:08:13;9.80;99.90
25951;DHT22;13748;52.240;6.002;2023-04-24T08:10:40;9.80;99.90
25951;DHT22;13748;52.240;6.002;2023-04-24T08:13:07;9.80;99.90
25951;DHT22;13748;52.240;6.002;2023-04-24T08:15:34;9.70;99.90
25951;DHT22;13748;52.240;6.002;2023-04-24T08:18:01;9.70;99.90
25951;DHT22;13748;52.240;6.002;2023-04-24T08:20:27;9.60;99.90
25951;DHT22;13748;52.240;6.002;2023-04-24T08:22:54;9.50;99.90
25951;DHT22;13748;52.240;6.002;2023-04-24T08:25:21;9.60;99.90
25951;DHT22;13748;52.240;6.002;2023-04-24T08:27:49;9.50;99.90
25951;DHT22;13748;52.240;6.002;2023-04-24T08:30:17;9.50;99.90
25951;DHT22;13748;52.240;6.002;2023-04-24T08:32:43;9.50;99.90
25951;DHT22;13748;52.240;6.002;2023-04-24T08:35:10;9.50;99.90
25951;DHT22;13748;52.240;6.002;2023-04-24T08:37:37;9.50;99.90
25951;DHT22;13748;52.240;6.002;2023-04-24T08:40:10;9.50;99.90
25951;DHT22;13748;52.240;6.002;2023-04-24T08:42:39;9.60;99.90
25951;DHT22;13748;52.240;6.002;2023-04-24T08:45:09;9.50;99.90
25951;DHT22;13748;52.240;6.002;2023-04-24T08:47:38;9.60;99.90
25951;DHT22;13748;52.240;6.002;2023-04-24T08:50:06;9.60;99.90
25951;DHT22;13748;52.240;6.002;2023-04-24T08:52:34;9.60;99.90
25951;DHT22;13748;52.240;6.002;2023-04-24T08:55:01;9.60;99.90
25951;DHT22;13748;52.240;6.002;2023-04-24T08:57:29;9.60;99.90
25951;DHT22;13748;52.240;6.002;2023-04-24T08:59:58;9.50;99.90
25951;DHT22;13748;52.240;6.002;2023-04-24T09:02:26;9.60;99.90
25951;DHT22;13748;52.240;6.002;2023-04-24T09:04:53;9.60;99.90
25951;DHT22;13748;52.240;6.002;2023-04-24T09:07:24;9.70;99.90
25951;DHT22;13748;52.240;6.002;2023-04-24T09:09:52;9.70;99.90
25951;DHT22;13748;52.240;6.002;2023-04-24T09:12:19;9.70;99.90
25951;DHT22;13748;52.240;6.002;2023-04-24T09:14:48;9.70;99.90
25951;DHT22;13748;52.240;6.002;2023-04-24T09:17:16;9.80;99.90
25951;DHT22;13748;52.240;6.002;2023-04-24T09:19:43;9.80;99.90
25951;DHT22;13748;52.240;6.002;2023-04-24T09:22:10;9.80;99.90
25951;DHT22;13748;52.240;6.002;2023-04-24T09:24:38;9.70;99.90
25951;DHT22;13748;52.240;6.002;2023-04-24T09:27:05;9.70;99.90
25951;DHT22;13748;52.240;6.002;2023-04-24T09:29:36;9.70;99.90
25951;DHT22;13748;52.240;6.002;2023-04-24T09:32:19;9.70;99.90
25951;DHT22;13748;52.240;6.002;2023-04-24T09:34:48;9.70;99.90
25951;DHT22;13748;52.240;6.002;2023-04-24T09:37:28;9.70;99.90
25951;DHT22;13748;52.240;6.002;2023-04-24T09:40:13;9.70;99.90
25951;DHT22;13748;52.240;6.002;2023-04-24T09:42:43;9.70;99.90
25951;DHT22;13748;52.240;6.002;2023-04-24T09:45:12;9.70;99.90
25951;DHT22;13748;52.240;6.002;2023-04-24T09:47:41;9.60;99.90
25951;DHT22;13748;52.240;6.002;2023-04-24T09:50:11;9.60;99.90
25951;DHT22;13748;52.240;6.002;2023-04-24T09:52:55;9.70;99.90
25951;DHT22;13748;52.240;6.002;2023-04-24T09:55:22;9.70;99.90
25951;DHT22;13748;52.240;6.002;2023-04-24T09:57:54;9.70;99.90
25951;DHT22;13748;52.240;6.002;2023-04-24T10:00:23;9.70;99.90
25951;DHT22;13748;52.240;6.002;2023-04-24T10:02:50;9.80;99.90
25951;DHT22;13748;52.240;6.002;2023-04-24T10:05:18;9.80;99.90
25951;DHT22;13748;52.240;6.002;2023-04-24T10:07:45;9.70;99.90
25951;DHT22;13748;52.240;6.002;2023-04-24T10:10:15;9.70;99.90
25951;DHT22;13748;52.240;6.002;2023-04-24T10:12:43;9.70;99.90
25951;DHT22;13748;52.240;6.002;2023-04-24T10:15:10;9.60;99.90
25951;DHT22;13748;52.240;6.002;2023-04-24T10:17:39;9.60;99.90
25951;DHT22;13748;52.240;6.002;2023-04-24T10:20:07;9.70;99.90
25951;DHT22;13748;52.240;6.002;2023-04-24T10:22:35;9.70;99.90
25951;DHT22;13748;52.240;6.002;2023-04-24T10:25:04;9.80;99.90
25951;DHT22;13748;52.240;6.002;2023-04-24T10:27:32;10.00;99.90
25951;DHT22;13748;52.240;6.002;2023-04-24T10:29:58;10.10;99.90
25951;DHT22;13748;52.240;6.002;2023-04-24T10:32:26;10.40;99.90
25951;DHT22;13748;52.240;6.002;2023-04-24T10:34:54;10.70;99.90
25951;DHT22;13748;52.240;6.002;2023-04-24T10:37:24;10.80;99.90
25951;DHT22;13748;52.240;6.002;2023-04-24T10:39:52;10.80;99.90
25951;DHT22;13748;52.240;6.002;2023-04-24T10:42:21;10.70;99.90
25951;DHT22;13748;52.240;6.002;2023-04-24T10:44:51;10.60;99.90
25951;DHT22;13748;52.240;6.002;2023-04-24T10:47:18;10.60;99.90
25951;DHT22;13748;52.240;6.002;2023-04-24T10:49:45;10.70;99.90
25951;DHT22;13748;52.240;6.002;2023-04-24T10:52:14;10.80;99.90
25951;DHT22;13748;52.240;6.002;2023-04-24T10:54:45;10.90;99.90
25951;DHT22;13748;52.240;6.002;2023-04-24T10:59:51;11.20;99.90
25951;DHT22;13748;52.240;6.002;2023-04-24T11:02:20;11.20;99.90
25951;DHT22;13748;52.240;6.002;2023-04-24T11:05:05;11.20;99.90
25951;DHT22;13748;52.240;6.002;2023-04-24T11:08:51;11.30;99.90
25951;DHT22;13748;52.240;6.002;2023-04-24T11:16:30;10.90;99.90
25951;DHT22;13748;52.240;6.002;2023-04-24T11:37:25;10.70;99.90
25951;DHT22;13748;52.240;6.002;2023-04-24T11:39:57;10.60;99.90
25951;DHT22;13748;52.240;6.002;2023-04-24T11:42:25;10.60;99.90
25951;DHT22;13748;52.240;6.002;2023-04-24T11:44:55;10.40;99.90
25951;DHT22;13748;52.240;6.002;2023-04-24T11:47:31;10.30;99.90
25951;DHT22;13748;52.240;6.002;2023-04-24T11:50:01;10.40;99.90
25951;DHT22;13748;52.240;6.002;2023-04-24T11:52:30;10.60;99.90
25951;DHT22;13748;52.240;6.002;2023-04-24T11:54:59;10.80;99.90
25951;DHT22;13748;52.240;6.002;2023-04-24T11:57:26;10.90;99.90
25951;DHT22;13748;52.240;6.002;2023-04-24T12:00:03;11.10;99.90
25951;DHT22;13748;52.240;6.002;2023-04-24T12:02:35;11.50;99.90
25951;DHT22;13748;52.240;6.002;2023-04-24T12:05:05;11.60;99.90
25951;DHT22;13748;52.240;6.002;2023-04-24T12:07:41;11.60;99.90
25951;DHT22;13748;52.240;6.002;2023-04-24T12:10:09;11.70;99.90
25951;DHT22;13748;52.240;6.002;2023-04-24T12:12:36;11.50;99.90
25951;DHT22;13748;52.240;6.002;2023-04-24T12:15:07;11.40;99.90
25951;DHT22;13748;52.240;6.002;2023-04-24T12:17:35;11.20;99.90
25951;DHT22;13748;52.240;6.002;2023-04-24T12:20:05;11.10;99.90
25951;DHT22;13748;52.240;6.002;2023-04-24T12:22:53;11.00;99.90
25951;DHT22;13748;52.240;6.002;2023-04-24T12:25:32;10.90;99.90
25951;DHT22;13748;52.240;6.002;2023-04-24T12:30:34;10.90;99.90
25951;DHT22;13748;52.240;6.002;2023-04-24T12:33:02;11.00;99.90
25951;DHT22;13748;52.240;6.002;2023-04-24T12:35:31;11.10;99.90
25951;DHT22;13748;52.240;6.002;2023-04-24T12:38:07;11.30;99.90
25951;DHT22;13748;52.240;6.002;2023-04-24T12:40:35;11.70;99.90
25951;DHT22;13748;52.240;6.002;2023-04-24T12:43:02;11.90;99.90
25951;DHT22;13748;52.240;6.002;2023-04-24T12:45:29;12.10;99.90
25951;DHT22;13748;52.240;6.002;2023-04-24T12:47:56;12.10;99.90
25951;DHT22;13748;52.240;6.002;2023-04-24T12:50:23;11.90;99.90
25951;DHT22;13748;52.240;6.002;2023-04-24T12:52:49;11.60;99.90
25951;DHT22;13748;52.240;6.002;2023-04-24T12:55:17;11.40;99.90
25951;DHT22;13748;52.240;6.002;2023-04-24T12:57:44;11.30;99.90
25951;DHT22;13748;52.240;6.002;2023-04-24T13:00:11;11.30;99.90
25951;DHT22;13748;52.240;6.002;2023-04-24T13:02:38;11.40;99.90
25951;DHT22;13748;52.240;6.002;2023-04-24T13:05:05;11.60;99.90
25951;DHT22;13748;52.240;6.002;2023-04-24T13:07:32;11.80;99.90
25951;DHT22;13748;52.240;6.002;2023-04-24T13:09:59;12.00;99.90
25951;DHT22;13748;52.240;6.002;2023-04-24T13:12:26;12.20;99.90
25951;DHT22;13748;52.240;6.002;2023-04-24T13:14:53;12.20;99.90
25951;DHT22;13748;52.240;6.002;2023-04-24T13:17:20;12.20;99.90
25951;DHT22;13748;52.240;6.002;2023-04-24T13:19:50;12.00;99.90
25951;DHT22;13748;52.240;6.002;2023-04-24T13:22:17;11.90;99.90
25951;DHT22;13748;52.240;6.002;2023-04-24T13:24:51;11.90;99.90
25951;DHT22;13748;52.240;6.002;2023-04-24T13:27:28;11.70;99.90
25951;DHT22;13748;52.240;6.002;2023-04-24T13:29:56;11.40;99.90
25951;DHT22;13748;52.240;6.002;2023-04-24T13:32:49;11.20;99.90
25951;DHT22;13748;52.240;6.002;2023-04-24T13:35:41;11.20;99.90
25951;DHT22;13748;52.240;6.002;2023-04-24T13:38:14;11.20;99.90
25951;DHT22;13748;52.240;6.002;2023-04-24T13:41:05;11.20;99.90
25951;DHT22;13748;52.240;6.002;2023-04-24T13:43:51;11.10;99.90
25951;DHT22;13748;52.240;6.002;2023-04-24T13:46:27;11.10;99.90
25951;DHT22;13748;52.240;6.002;2023-04-24T13:48:59;11.00;99.90
25951;DHT22;13748;52.240;6.002;2023-04-24T13:51:26;11.00;99.90
25951;DHT22;13748;52.240;6.002;2023-04-24T13:53:54;10.90;99.90
25951;DHT22;13748;52.240;6.002;2023-04-24T13:56:22;11.10;99.90
25951;DHT22;13748;52.240;6.002;2023-04-24T13:58:49;11.20;99.90
25951;DHT22;13748;52.240;6.002;2023-04-24T14:01:15;11.20;99.90
25951;DHT22;13748;52.240;6.002;2023-04-24T14:03:42;11.40;99.90
25951;DHT22;13748;52.240;6.002;2023-04-24T14:06:13;11.40;99.90
25951;DHT22;13748;52.240;6.002;2023-04-24T14:08:39;11.50;99.90
25951;DHT22;13748;52.240;6.002;2023-04-24T14:11:06;11.40;99.90
25951;DHT22;13748;52.240;6.002;2023-04-24T14:13:35;11.30;99.90
25951;DHT22;13748;52.240;6.002;2023-04-24T14:16:03;11.20;99.90
25951;DHT22;13748;52.240;6.002;2023-04-24T14:18:30;11.10;99.90
25951;DHT22;13748;52.240;6.002;2023-04-24T14:20:57;11.00;99.90
25951;DHT22;13748;52.240;6.002;2023-04-24T14:23:23;10.90;99.90
25951;DHT22;13748;52.240;6.002;2023-04-24T14:25:50;10.80;99.90
25951;DHT22;13748;52.240;6.002;2023-04-24T14:28:19;10.80;99.90
25951;DHT22;13748;52.240;6.002;2023-04-24T14:30:47;10.90;99.90
25951;DHT22;13748;52.240;6.002;2023-04-24T14:33:14;10.80;99.90
25951;DHT22;13748;52.240;6.002;2023-04-24T14:35:42;10.80;99.90
25951;DHT22;13748;52.240;6.002;2023-04-24T14:38:09;10.80;99.90
25951;DHT22;13748;52.240;6.002;2023-04-24T14:40:37;11.00;99.90
25951;DHT22;13748;52.240;6.002;2023-04-24T14:43:24;11.10;99.90
25951;DHT22;13748;52.240;6.002;2023-04-24T14:45:51;11.20;99.90
25951;DHT22;13748;52.240;6.002;2023-04-24T14:48:18;11.20;99.90
25951;DHT22;13748;52.240;6.002;2023-04-24T14:50:45;11.10;99.90
25951;DHT22;13748;52.240;6.002;2023-04-24T14:53:12;11.00;99.90
25951;DHT22;13748;52.240;6.002;2023-04-24T14:55:39;11.00;99.90
25951;DHT22;13748;52.240;6.002;2023-04-24T14:58:06;10.90;99.90
25951;DHT22;13748;52.240;6.002;2023-04-24T15:00:33;11.10;99.90
25951;DHT22;13748;52.240;6.002;2023-04-24T15:03:00;11.20;99.90
25951;DHT22;13748;52.240;6.002;2023-04-24T15:05:28;11.30;99.90
25951;DHT22;13748;52.240;6.002;2023-04-24T15:07:56;11.50;99.90
25951;DHT22;13748;52.240;6.002;2023-04-24T15:10:22;11.60;99.90
25951;DHT22;13748;52.240;6.002;2023-04-24T15:12:50;11.70;99.90
25951;DHT22;13748;52.240;6.002;2023-04-24T15:15:17;11.90;99.90
25951;DHT22;13748;52.240;6.002;2023-04-24T15:17:43;12.10;99.90
25951;DHT22;13748;52.240;6.002;2023-04-24T15:20:10;12.20;99.90
25951;DHT22;13748;52.240;6.002;2023-04-24T15:22:37;12.20;99.90
25951;DHT22;13748;52.240;6.002;2023-04-24T15:25:04;12.20;99.90
25951;DHT22;13748;52.240;6.002;2023-04-24T15:27:45;12.20;99.90
25951;DHT22;13748;52.240;6.002;2023-04-24T15:30:13;12.20;99.90
25951;DHT22;13748;52.240;6.002;2023-04-24T15:32:40;12.10;99.90
25951;DHT22;13748;52.240;6.002;2023-04-24T15:35:07;12.00;99.90
25951;DHT22;13748;52.240;6.002;2023-04-24T15:37:37;12.10;99.90
25951;DHT22;13748;52.240;6.002;2023-04-24T15:40:05;12.00;99.90
25951;DHT22;13748;52.240;6.002;2023-04-24T15:42:34;11.90;99.90
25951;DHT22;13748;52.240;6.002;2023-04-24T15:45:01;12.00;99.90
25951;DHT22;13748;52.240;6.002;2023-04-24T15:47:28;12.10;99.90
25951;DHT22;13748;52.240;6.002;2023-04-24T15:49:55;12.00;99.90
25951;DHT22;13748;52.240;6.002;2023-04-24T15:52:21;11.80;99.90
25951;DHT22;13748;52.240;6.002;2023-04-24T15:54:48;11.80;99.90
25951;DHT22;13748;52.240;6.002;2023-04-24T15:57:15;11.80;99.90
25951;DHT22;13748;52.240;6.002;2023-04-24T15:59:43;12.00;99.90
25951;DHT22;13748;52.240;6.002;2023-04-24T16:02:12;12.00;99.90
25951;DHT22;13748;52.240;6.002;2023-04-24T16:04:47;12.00;99.90
25951;DHT22;13748;52.240;6.002;2023-04-24T16:07:15;12.00;99.90
25951;DHT22;13748;52.240;6.002;2023-04-24T16:09:43;12.00;99.90
25951;DHT22;13748;52.240;6.002;2023-04-24T16:12:10;12.00;99.90
25951;DHT22;13748;52.240;6.002;2023-04-24T16:14:37;12.00;99.90